createdAt,value
2016-07-02T00:00:19.307Z,0
2016-07-02T00:01:19.283Z,0
2016-07-02T00:02:19.464Z,0
2016-07-02T00:03:19.403Z,0
2016-07-02T00:04:19.418Z,0
2016-07-02T00:05:19.566Z,0
2016-07-02T00:06:19.481Z,0
2016-07-02T00:07:19.474Z,0
2016-07-02T00:08:19.468Z,0
2016-07-02T00:09:19.370Z,0
2016-07-02T00:10:19.470Z,0
2016-07-02T00:11:19.487Z,0
2016-07-02T00:12:19.583Z,0
2016-07-02T00:13:19.897Z,0
2016-07-02T00:14:19.240Z,0
2016-07-02T00:15:19.394Z,0
2016-07-02T00:16:19.472Z,0
2016-07-02T00:17:20.355Z,0
2016-07-02T00:18:19.379Z,0
2016-07-02T00:19:19.479Z,0
2016-07-02T00:20:19.386Z,0
2016-07-02T00:21:19.345Z,0
2016-07-02T00:22:19.406Z,0
2016-07-02T00:23:19.762Z,0
2016-07-02T00:24:19.209Z,0
2016-07-02T00:25:19.354Z,0
2016-07-02T00:26:19.229Z,0
2016-07-02T00:27:19.453Z,0
2016-07-02T00:28:19.411Z,0
2016-07-02T00:29:19.538Z,0
2016-07-02T00:30:21.247Z,0
2016-07-02T00:31:19.384Z,0
2016-07-02T00:32:19.238Z,0
2016-07-02T00:33:19.237Z,0
2016-07-02T00:34:19.215Z,0
2016-07-02T00:35:19.384Z,0
2016-07-02T00:36:19.478Z,0
2016-07-02T00:37:19.323Z,0
2016-07-02T00:38:20.287Z,0
2016-07-02T00:39:19.236Z,0
2016-07-02T00:40:19.495Z,0
2016-07-02T00:41:19.306Z,0
2016-07-02T00:42:19.306Z,0
2016-07-02T00:43:19.379Z,0
2016-07-02T00:44:19.179Z,0
2016-07-02T00:45:19.284Z,0
2016-07-02T00:46:19.159Z,0
2016-07-02T00:47:20.277Z,0
2016-07-02T00:48:19.815Z,0
2016-07-02T00:49:19.345Z,0
2016-07-02T00:50:19.455Z,0
2016-07-02T00:51:19.454Z,0
2016-07-02T00:52:19.510Z,0
2016-07-02T00:53:19.320Z,0
2016-07-02T00:54:19.417Z,0
2016-07-02T00:55:19.100Z,0
2016-07-02T00:56:19.127Z,0
2016-07-02T00:57:19.022Z,0
2016-07-02T00:58:19.256Z,0
2016-07-02T00:59:19.795Z,0
2016-07-02T01:00:19.126Z,0
2016-07-02T01:01:19.127Z,0
2016-07-02T01:02:19.285Z,0
2016-07-02T01:03:19.412Z,0
2016-07-02T01:04:19.338Z,0
2016-07-02T01:05:19.381Z,0
2016-07-02T01:06:19.225Z,0
2016-07-02T01:07:19.577Z,0
2016-07-02T01:08:19.074Z,0
2016-07-02T01:09:19.018Z,0
2016-07-02T01:10:19.190Z,0
2016-07-02T01:11:33.839Z,0
2016-07-02T01:12:19.083Z,0
2016-07-02T01:13:19.202Z,0
2016-07-02T01:14:19.063Z,0
2016-07-02T01:15:19.801Z,0
2016-07-02T01:16:19.080Z,0
2016-07-02T01:17:20.011Z,0
2016-07-02T01:18:19.325Z,0
2016-07-02T01:19:20.301Z,0
2016-07-02T01:20:19.293Z,0
2016-07-02T01:21:19.268Z,0
2016-07-02T01:22:19.318Z,0
2016-07-02T01:23:19.323Z,0
2016-07-02T01:24:19.283Z,0
2016-07-02T01:25:19.147Z,0
2016-07-02T01:26:20.993Z,0
2016-07-02T01:27:19.342Z,0
2016-07-02T01:28:19.048Z,0
2016-07-02T01:29:18.994Z,0
2016-07-02T01:30:19.281Z,0
2016-07-02T01:31:19.199Z,0
2016-07-02T01:32:19.292Z,0
2016-07-02T01:33:19.125Z,0
2016-07-02T01:34:18.984Z,0
2016-07-02T01:35:19.003Z,0
2016-07-02T01:36:18.987Z,0
2016-07-02T01:37:18.993Z,0
2016-07-02T01:38:18.970Z,0
2016-07-02T01:39:19.376Z,0
2016-07-02T01:40:19.275Z,0
2016-07-02T01:41:19.302Z,0
2016-07-02T01:42:19.267Z,0
2016-07-02T01:43:19.107Z,0
2016-07-02T01:44:18.955Z,0
2016-07-02T01:45:18.980Z,0
2016-07-02T01:46:19.130Z,0
2016-07-02T01:47:18.966Z,0
2016-07-02T01:48:19.689Z,0
2016-07-02T01:49:18.968Z,0
2016-07-02T01:50:19.222Z,0
2016-07-02T01:51:19.113Z,0
2016-07-02T01:52:19.321Z,0
2016-07-02T01:53:19.575Z,0
2016-07-02T01:54:19.824Z,0
2016-07-02T01:55:19.157Z,0
2016-07-02T01:56:19.218Z,0
2016-07-02T01:57:18.946Z,0
2016-07-02T01:58:18.946Z,0
2016-07-02T01:59:19.952Z,0
2016-07-02T02:00:19.204Z,0
2016-07-02T02:01:18.969Z,0
2016-07-02T02:02:19.047Z,0
2016-07-02T02:03:19.103Z,0
2016-07-02T02:04:19.103Z,0
2016-07-02T02:05:19.058Z,0
2016-07-02T02:06:19.491Z,0
2016-07-02T02:07:19.189Z,0
2016-07-02T02:08:19.087Z,0
2016-07-02T02:09:20.013Z,0
2016-07-02T02:10:18.949Z,0
2016-07-02T02:11:19.513Z,0
2016-07-02T02:12:19.067Z,0
2016-07-02T02:13:20.016Z,0
2016-07-02T02:14:19.660Z,0
2016-07-02T02:15:18.801Z,0
2016-07-02T02:16:18.893Z,0
2016-07-02T02:17:18.898Z,0
2016-07-02T02:18:18.860Z,0
2016-07-02T02:19:19.090Z,0
2016-07-02T02:20:19.166Z,0
2016-07-02T02:21:19.436Z,0
2016-07-02T02:22:19.428Z,0
2016-07-02T02:23:19.948Z,0
2016-07-02T02:24:19.732Z,0
2016-07-02T02:25:19.268Z,0
2016-07-02T02:26:19.305Z,0
2016-07-02T02:27:19.310Z,0
2016-07-02T02:28:19.150Z,0
2016-07-02T02:29:19.140Z,0
2016-07-02T02:30:19.266Z,0
2016-07-02T02:31:19.239Z,0
2016-07-02T02:32:19.362Z,0
2016-07-02T02:33:19.267Z,0
2016-07-02T02:34:19.109Z,0
2016-07-02T02:35:19.351Z,0
2016-07-02T02:36:19.437Z,0
2016-07-02T02:37:19.076Z,0
2016-07-02T02:38:19.117Z,0
2016-07-02T02:39:19.248Z,0
2016-07-02T02:40:19.133Z,0
2016-07-02T02:41:19.220Z,0
2016-07-02T02:42:19.113Z,0
2016-07-02T02:43:19.162Z,0
2016-07-02T02:44:19.085Z,0
2016-07-02T02:45:18.996Z,0
2016-07-02T02:46:20.315Z,0
2016-07-02T02:47:18.881Z,0
2016-07-02T02:48:19.014Z,0
2016-07-02T02:49:19.755Z,0
2016-07-02T02:50:18.884Z,0
2016-07-02T02:51:19.020Z,0
2016-07-02T02:52:19.005Z,0
2016-07-02T02:53:18.875Z,0
2016-07-02T02:54:18.803Z,0
2016-07-02T02:55:19.168Z,0
2016-07-02T02:56:18.902Z,0
2016-07-02T02:57:19.012Z,0
2016-07-02T02:58:19.156Z,0
2016-07-02T02:59:19.160Z,0
2016-07-02T03:00:19.083Z,0
2016-07-02T03:01:19.060Z,5
2016-07-02T03:02:19.091Z,5
2016-07-02T03:03:19.383Z,5
2016-07-02T03:04:18.756Z,5
2016-07-02T03:05:18.943Z,5
2016-07-02T03:06:18.931Z,5
2016-07-02T03:07:18.965Z,10
2016-07-02T03:08:18.983Z,10
2016-07-02T03:09:18.940Z,10
2016-07-02T03:10:18.742Z,10
2016-07-02T03:11:19.068Z,10
2016-07-02T03:12:19.533Z,15
2016-07-02T03:13:18.984Z,15
2016-07-02T03:14:18.961Z,15
2016-07-02T03:15:18.999Z,15
2016-07-02T03:16:18.998Z,20
2016-07-02T03:17:18.871Z,20
2016-07-02T03:18:18.724Z,20
2016-07-02T03:19:18.939Z,25
2016-07-02T03:20:18.704Z,25
2016-07-02T03:21:18.917Z,25
2016-07-02T03:22:18.885Z,25
2016-07-02T03:23:18.976Z,30
2016-07-02T03:24:19.040Z,30
2016-07-02T03:25:18.836Z,30
2016-07-02T03:26:18.702Z,30
2016-07-02T03:27:18.700Z,35
2016-07-02T03:28:18.691Z,35
2016-07-02T03:29:18.981Z,35
2016-07-02T03:30:18.921Z,35
2016-07-02T03:31:18.908Z,35
2016-07-02T03:32:19.000Z,40
2016-07-02T03:33:18.994Z,40
2016-07-02T03:34:18.829Z,40
2016-07-02T03:35:18.719Z,40
2016-07-02T03:36:19.160Z,45
2016-07-02T03:37:19.726Z,45
2016-07-02T03:38:18.916Z,50
2016-07-02T03:39:18.884Z,55
2016-07-02T03:40:18.879Z,55
2016-07-02T03:41:18.686Z,60
2016-07-02T03:42:18.700Z,60
2016-07-02T03:43:18.706Z,65
2016-07-02T03:44:19.102Z,65
2016-07-02T03:45:18.900Z,65
2016-07-02T03:46:18.869Z,65
2016-07-02T03:47:19.027Z,65
2016-07-02T03:48:18.684Z,65
2016-07-02T03:49:18.656Z,65
2016-07-02T03:50:19.036Z,70
2016-07-02T03:51:19.097Z,70
2016-07-02T03:52:18.875Z,75
2016-07-02T03:53:18.791Z,75
2016-07-02T03:54:18.992Z,80
2016-07-02T03:55:18.961Z,80
2016-07-02T03:56:19.000Z,80
2016-07-02T03:57:18.828Z,80
2016-07-02T03:58:19.259Z,80
2016-07-02T03:59:18.646Z,85
2016-07-02T04:00:18.640Z,85
2016-07-02T04:01:18.957Z,85
2016-07-02T04:02:18.965Z,90
2016-07-02T04:03:19.070Z,95
2016-07-02T04:04:18.992Z,95
2016-07-02T04:05:18.640Z,100
2016-07-02T04:06:18.637Z,100
2016-07-02T04:07:18.654Z,100
2016-07-02T04:08:18.660Z,100
2016-07-02T04:09:18.638Z,100
2016-07-02T04:10:19.534Z,100
2016-07-02T04:11:18.616Z,105
2016-07-02T04:12:18.564Z,105
2016-07-02T04:13:18.597Z,105
2016-07-02T04:14:19.258Z,105
2016-07-02T04:15:18.962Z,105
2016-07-02T04:16:18.877Z,100
2016-07-02T04:17:18.697Z,100
2016-07-02T04:18:18.966Z,105
2016-07-02T04:19:19.044Z,105
2016-07-02T04:20:18.714Z,105
2016-07-02T04:21:18.936Z,105
2016-07-02T04:22:19.045Z,105
2016-07-02T04:23:18.604Z,110
2016-07-02T04:24:18.623Z,105
2016-07-02T04:25:18.585Z,105
2016-07-02T04:26:18.816Z,105
2016-07-02T04:27:19.002Z,100
2016-07-02T04:28:18.695Z,100
2016-07-02T04:29:18.667Z,95
2016-07-02T04:30:18.714Z,95
2016-07-02T04:31:18.702Z,95
2016-07-02T04:32:18.817Z,90
2016-07-02T04:33:18.915Z,90
2016-07-02T04:34:18.747Z,95
2016-07-02T04:35:18.690Z,90
2016-07-02T04:36:18.588Z,90
2016-07-02T04:37:18.710Z,90
2016-07-02T04:38:18.783Z,85
2016-07-02T04:39:18.717Z,90
2016-07-02T04:40:18.766Z,90
2016-07-02T04:41:18.892Z,90
2016-07-02T04:42:18.763Z,90
2016-07-02T04:43:18.579Z,95
2016-07-02T04:44:18.592Z,100
2016-07-02T04:45:18.831Z,100
2016-07-02T04:46:18.780Z,105
2016-07-02T04:47:18.739Z,105
2016-07-02T04:48:18.552Z,110
2016-07-02T04:49:18.489Z,120
2016-07-02T04:50:18.688Z,125
2016-07-02T04:51:18.992Z,130
2016-07-02T04:52:18.666Z,135
2016-07-02T04:53:18.728Z,135
2016-07-02T04:54:18.797Z,140
2016-07-02T04:55:18.696Z,140
2016-07-02T04:56:18.539Z,140
2016-07-02T04:57:18.689Z,140
2016-07-02T04:58:18.468Z,140
2016-07-02T04:59:18.674Z,140
2016-07-02T05:00:18.722Z,135
2016-07-02T05:01:18.662Z,135
2016-07-02T05:02:19.168Z,130
2016-07-02T05:03:18.565Z,130
2016-07-02T05:04:18.649Z,130
2016-07-02T05:05:18.759Z,130
2016-07-02T05:06:18.622Z,130
2016-07-02T05:07:18.815Z,130
2016-07-02T05:08:18.702Z,130
2016-07-02T05:09:18.520Z,130
2016-07-02T05:10:18.534Z,130
2016-07-02T05:11:18.528Z,130
2016-07-02T05:12:18.538Z,130
2016-07-02T05:13:18.934Z,130
2016-07-02T05:14:18.639Z,135
2016-07-02T05:15:18.547Z,135
2016-07-02T05:16:18.996Z,140
2016-07-02T05:17:18.822Z,145
2016-07-02T05:18:18.532Z,150
2016-07-02T05:19:18.445Z,155
2016-07-02T05:20:18.652Z,160
2016-07-02T05:21:18.440Z,165
2016-07-02T05:22:18.516Z,170
2016-07-02T05:23:18.810Z,175
2016-07-02T05:24:18.762Z,180
2016-07-02T05:25:19.399Z,185
2016-07-02T05:26:18.726Z,200
2016-07-02T05:27:18.750Z,195
2016-07-02T05:28:18.972Z,195
2016-07-02T05:29:18.956Z,195
2016-07-02T05:30:18.716Z,200
2016-07-02T05:31:18.704Z,200
2016-07-02T05:32:19.401Z,200
2016-07-02T05:33:18.761Z,200
2016-07-02T05:34:18.758Z,200
2016-07-02T05:35:19.335Z,205
2016-07-02T05:36:18.697Z,210
2016-07-02T05:37:18.622Z,210
2016-07-02T05:38:18.496Z,220
2016-07-02T05:39:18.725Z,225
2016-07-02T05:40:18.603Z,230
2016-07-02T05:41:18.930Z,235
2016-07-02T05:42:18.703Z,245
2016-07-02T05:43:18.631Z,255
2016-07-02T05:44:18.532Z,265
2016-07-02T05:45:18.491Z,265
2016-07-02T05:46:18.478Z,265
2016-07-02T05:47:18.484Z,260
2016-07-02T05:48:18.510Z,260
2016-07-02T05:49:18.501Z,260
2016-07-02T05:50:18.500Z,260
2016-07-02T05:51:18.728Z,265
2016-07-02T05:52:18.764Z,280
2016-07-02T05:53:20.342Z,290
2016-07-02T05:54:18.783Z,300
2016-07-02T05:55:18.944Z,290
2016-07-02T05:56:18.764Z,290
2016-07-02T05:57:18.741Z,290
2016-07-02T05:58:18.781Z,300
2016-07-02T05:59:18.712Z,325
2016-07-02T06:00:18.790Z,330
2016-07-02T06:01:18.686Z,320
2016-07-02T06:02:18.509Z,310
2016-07-02T06:03:18.478Z,310
2016-07-02T06:04:18.509Z,305
2016-07-02T06:05:18.642Z,320
2016-07-02T06:06:18.685Z,340
2016-07-02T06:07:18.983Z,350
2016-07-02T06:08:18.822Z,360
2016-07-02T06:09:18.758Z,385
2016-07-02T06:10:18.503Z,430
2016-07-02T06:11:18.513Z,460
2016-07-02T06:12:19.242Z,450
2016-07-02T06:13:18.659Z,415
2016-07-02T06:14:18.677Z,395
2016-07-02T06:15:18.720Z,420
2016-07-02T06:16:18.696Z,440
2016-07-02T06:17:18.714Z,470
2016-07-02T06:18:18.719Z,465
2016-07-02T06:19:18.682Z,420
2016-07-02T06:20:18.709Z,385
2016-07-02T06:21:18.654Z,385
2016-07-02T06:22:18.605Z,385
2016-07-02T06:23:18.524Z,375
2016-07-02T06:24:18.529Z,365
2016-07-02T06:25:18.524Z,335
2016-07-02T06:26:18.758Z,355
2016-07-02T06:27:18.524Z,365
2016-07-02T06:28:18.645Z,340
2016-07-02T06:29:18.604Z,305
2016-07-02T06:30:19.234Z,285
2016-07-02T06:31:18.529Z,280
2016-07-02T06:32:18.506Z,270
2016-07-02T06:33:18.689Z,265
2016-07-02T06:34:18.527Z,240
2016-07-02T06:35:18.481Z,230
2016-07-02T06:36:18.557Z,215
2016-07-02T06:37:18.780Z,205
2016-07-02T06:38:18.534Z,205
2016-07-02T06:39:18.588Z,210
2016-07-02T06:40:18.863Z,225
2016-07-02T06:41:18.963Z,245
2016-07-02T06:42:18.736Z,260
2016-07-02T06:43:18.726Z,285
2016-07-02T06:44:18.695Z,320
2016-07-02T06:45:18.555Z,355
2016-07-02T06:46:18.945Z,390
2016-07-02T06:47:18.764Z,405
2016-07-02T06:48:18.648Z,365
2016-07-02T06:49:18.859Z,305
2016-07-02T06:50:19.101Z,270
2016-07-02T06:51:18.589Z,245
2016-07-02T06:52:18.560Z,225
2016-07-02T06:53:18.536Z,240
2016-07-02T06:54:19.227Z,285
2016-07-02T06:55:18.969Z,325
2016-07-02T06:56:18.773Z,370
2016-07-02T06:57:19.173Z,410
2016-07-02T06:58:18.567Z,385
2016-07-02T06:59:18.571Z,410
2016-07-02T07:00:18.536Z,480
2016-07-02T07:01:18.583Z,435
2016-07-02T07:02:18.615Z,490
2016-07-02T07:03:18.730Z,580
2016-07-02T07:04:18.717Z,540
2016-07-02T07:05:19.336Z,470
2016-07-02T07:06:18.791Z,450
2016-07-02T07:07:18.787Z,455
2016-07-02T07:08:18.663Z,430
2016-07-02T07:09:18.581Z,420
2016-07-02T07:10:18.854Z,415
2016-07-02T07:11:18.786Z,395
2016-07-02T07:12:18.937Z,470
2016-07-02T07:13:18.587Z,460
2016-07-02T07:14:18.609Z,530
2016-07-02T07:15:18.617Z,575
2016-07-02T07:16:18.609Z,590
2016-07-02T07:17:18.746Z,600
2016-07-02T07:18:18.839Z,680
2016-07-02T07:19:18.701Z,735
2016-07-02T07:20:18.647Z,790
2016-07-02T07:21:18.641Z,850
2016-07-02T07:22:18.647Z,810
2016-07-02T07:23:18.938Z,965
2016-07-02T07:24:18.875Z,700
2016-07-02T07:25:18.991Z,660
2016-07-02T07:26:19.046Z,670
2016-07-02T07:27:18.976Z,670
2016-07-02T07:28:18.668Z,680
2016-07-02T07:29:18.669Z,665
2016-07-02T07:30:19.534Z,705
2016-07-02T07:31:18.839Z,725
2016-07-02T07:32:19.114Z,1115
2016-07-02T07:33:18.850Z,1055
2016-07-02T07:34:19.082Z,1285
2016-07-02T07:35:18.921Z,1190
2016-07-02T07:36:18.715Z,1200
2016-07-02T07:37:18.827Z,1210
2016-07-02T07:38:18.915Z,675
2016-07-02T07:39:18.958Z,350
2016-07-02T07:40:20.308Z,315
2016-07-02T07:41:18.932Z,290
2016-07-02T07:42:18.910Z,280
2016-07-02T07:43:19.020Z,275
2016-07-02T07:44:18.933Z,275
2016-07-02T07:45:18.927Z,275
2016-07-02T07:46:18.949Z,275
2016-07-02T07:47:19.028Z,265
2016-07-02T07:48:18.911Z,255
2016-07-02T07:49:18.955Z,245
2016-07-02T07:50:18.848Z,245
2016-07-02T07:51:19.000Z,245
2016-07-02T07:52:18.968Z,255
2016-07-02T07:53:18.794Z,260
2016-07-02T07:54:19.000Z,255
2016-07-02T07:55:18.993Z,255
2016-07-02T07:56:18.766Z,265
2016-07-02T07:57:18.810Z,275
2016-07-02T07:58:18.816Z,265
2016-07-02T07:59:18.815Z,265
2016-07-02T08:00:18.844Z,250
2016-07-02T08:01:19.272Z,265
2016-07-02T08:02:19.114Z,245
2016-07-02T08:03:19.080Z,200
2016-07-02T08:04:19.677Z,210
2016-07-02T08:05:18.861Z,200
2016-07-02T08:06:19.241Z,225
2016-07-02T08:07:19.167Z,300
2016-07-02T08:08:18.869Z,230
2016-07-02T08:09:18.865Z,240
2016-07-02T08:10:18.892Z,285
2016-07-02T08:11:18.879Z,265
2016-07-02T08:12:18.880Z,245
2016-07-02T08:13:19.127Z,255
2016-07-02T08:14:19.294Z,230
2016-07-02T08:15:19.263Z,220
2016-07-02T08:16:19.180Z,255
2016-07-02T08:17:19.237Z,305
2016-07-02T08:18:18.859Z,325
2016-07-02T08:19:18.905Z,325
2016-07-02T08:20:19.063Z,355
2016-07-02T08:21:19.285Z,405
2016-07-02T08:22:19.115Z,445
2016-07-02T08:23:19.073Z,470
2016-07-02T08:24:19.823Z,525
2016-07-02T08:25:19.197Z,555
2016-07-02T08:26:18.954Z,575
2016-07-02T08:27:18.940Z,480
2016-07-02T08:28:18.844Z,420
2016-07-02T08:29:19.103Z,420
2016-07-02T08:30:19.653Z,360
2016-07-02T08:31:19.079Z,335
2016-07-02T08:32:19.012Z,340
2016-07-02T08:33:19.090Z,280
2016-07-02T08:34:19.120Z,275
2016-07-02T08:35:19.050Z,295
2016-07-02T08:36:18.927Z,365
2016-07-02T08:37:18.914Z,435
2016-07-02T08:38:19.106Z,460
2016-07-02T08:39:19.095Z,445
2016-07-02T08:40:19.155Z,460
2016-07-02T08:41:19.234Z,535
2016-07-02T08:42:19.220Z,555
2016-07-02T08:43:19.073Z,575
2016-07-02T08:44:18.941Z,540
2016-07-02T08:45:18.936Z,445
2016-07-02T08:46:18.966Z,440
2016-07-02T08:47:18.943Z,435
2016-07-02T08:48:18.933Z,430
2016-07-02T08:49:19.207Z,410
2016-07-02T08:50:19.126Z,350
2016-07-02T08:51:19.166Z,330
2016-07-02T08:52:19.132Z,365
2016-07-02T08:53:19.060Z,430
2016-07-02T08:54:19.083Z,435
2016-07-02T08:55:18.936Z,330
2016-07-02T08:56:18.947Z,315
2016-07-02T08:57:18.930Z,315
2016-07-02T08:58:19.120Z,225
2016-07-02T08:59:19.013Z,165
2016-07-02T09:00:19.162Z,165
2016-07-02T09:01:18.861Z,180
2016-07-02T09:02:20.157Z,185
2016-07-02T09:03:19.127Z,205
2016-07-02T09:04:19.031Z,285
2016-07-02T09:05:18.992Z,330
2016-07-02T09:06:19.125Z,315
2016-07-02T09:07:19.103Z,295
2016-07-02T09:08:19.130Z,205
2016-07-02T09:09:19.104Z,155
2016-07-02T09:10:19.219Z,130
2016-07-02T09:11:19.133Z,105
2016-07-02T09:12:19.134Z,95
2016-07-02T09:13:19.134Z,100
2016-07-02T09:14:19.082Z,100
2016-07-02T09:15:19.251Z,170
2016-07-02T09:16:18.938Z,175
2016-07-02T09:17:19.134Z,170
2016-07-02T09:18:19.137Z,175
2016-07-02T09:19:18.939Z,190
2016-07-02T09:20:19.067Z,205
2016-07-02T09:21:19.016Z,210
2016-07-02T09:22:18.980Z,215
2016-07-02T09:23:18.882Z,235
2016-07-02T09:24:19.598Z,300
2016-07-02T09:25:19.055Z,365
2016-07-02T09:26:19.162Z,410
2016-07-02T09:27:19.204Z,385
2016-07-02T09:28:19.169Z,315
2016-07-02T09:29:19.041Z,285
2016-07-02T09:30:19.217Z,250
2016-07-02T09:31:18.884Z,210
2016-07-02T09:32:19.009Z,190
2016-07-02T09:33:18.970Z,200
2016-07-02T09:34:19.011Z,230
2016-07-02T09:35:18.996Z,225
2016-07-02T09:36:18.984Z,235
2016-07-02T09:37:18.990Z,255
2016-07-02T09:38:19.002Z,235
2016-07-02T09:39:18.980Z,210
2016-07-02T09:40:18.986Z,180
2016-07-02T09:41:18.997Z,190
2016-07-02T09:42:19.673Z,255
2016-07-02T09:43:19.011Z,365
2016-07-02T09:44:19.086Z,465
2016-07-02T09:45:19.279Z,445
2016-07-02T09:46:19.177Z,425
2016-07-02T09:47:19.133Z,435
2016-07-02T09:48:19.003Z,435
2016-07-02T09:49:19.093Z,365
2016-07-02T09:50:19.169Z,325
2016-07-02T09:51:19.190Z,330
2016-07-02T09:52:19.178Z,360
2016-07-02T09:53:19.107Z,345
2016-07-02T09:54:19.069Z,305
2016-07-02T09:55:19.102Z,295
2016-07-02T09:56:19.093Z,290
2016-07-02T09:57:19.190Z,305
2016-07-02T09:58:19.121Z,315
2016-07-02T09:59:18.998Z,335
2016-07-02T10:00:19.064Z,340
2016-07-02T10:01:19.210Z,375
2016-07-02T10:02:18.992Z,425
2016-07-02T10:03:19.012Z,450
2016-07-02T10:04:19.004Z,390
2016-07-02T10:05:19.001Z,360
2016-07-02T10:06:19.127Z,340
2016-07-02T10:07:19.173Z,250
2016-07-02T10:08:19.200Z,200
2016-07-02T10:09:19.007Z,215
2016-07-02T10:10:19.102Z,190
2016-07-02T10:11:19.170Z,160
2016-07-02T10:12:18.979Z,155
2016-07-02T10:13:19.012Z,130
2016-07-02T10:14:19.090Z,175
2016-07-02T10:15:19.998Z,195
2016-07-02T10:16:19.221Z,190
2016-07-02T10:17:19.181Z,195
2016-07-02T10:18:19.010Z,165
2016-07-02T10:19:19.154Z,160
2016-07-02T10:20:19.031Z,145
2016-07-02T10:21:19.149Z,120
2016-07-02T10:22:19.215Z,110
2016-07-02T10:23:19.174Z,110
2016-07-02T10:24:19.211Z,125
2016-07-02T10:25:19.290Z,130
2016-07-02T10:26:19.084Z,130
2016-07-02T10:27:19.156Z,135
2016-07-02T10:28:19.020Z,145
2016-07-02T10:29:19.020Z,170
2016-07-02T10:30:19.048Z,190
2016-07-02T10:31:19.125Z,200
2016-07-02T10:32:19.948Z,220
2016-07-02T10:33:19.020Z,250
2016-07-02T10:34:19.084Z,260
2016-07-02T10:35:19.314Z,250
2016-07-02T10:36:19.193Z,230
2016-07-02T10:37:18.946Z,190
2016-07-02T10:38:19.089Z,170
2016-07-02T10:39:19.040Z,175
2016-07-02T10:40:19.103Z,180
2016-07-02T10:41:19.077Z,195
2016-07-02T10:42:19.185Z,215
2016-07-02T10:43:19.238Z,225
2016-07-02T10:44:19.213Z,245
2016-07-02T10:45:19.153Z,240
2016-07-02T10:46:19.229Z,245
2016-07-02T10:47:19.203Z,255
2016-07-02T10:48:19.188Z,260
2016-07-02T10:49:19.915Z,270
2016-07-02T10:50:19.103Z,290
2016-07-02T10:51:19.243Z,350
2016-07-02T10:52:19.135Z,430
2016-07-02T10:53:19.202Z,445
2016-07-02T10:54:19.224Z,460
2016-07-02T10:55:19.203Z,490
2016-07-02T10:56:19.143Z,515
2016-07-02T10:57:19.241Z,505
2016-07-02T10:58:19.185Z,485
2016-07-02T10:59:19.298Z,465
2016-07-02T11:00:19.154Z,460
2016-07-02T11:01:19.058Z,445
2016-07-02T11:02:19.126Z,405
2016-07-02T11:03:19.630Z,395
2016-07-02T11:04:19.175Z,470
2016-07-02T11:05:19.209Z,515
2016-07-02T11:06:19.221Z,530
2016-07-02T11:07:19.242Z,555
2016-07-02T11:08:19.299Z,595
2016-07-02T11:09:19.218Z,640
2016-07-02T11:10:19.203Z,675
2016-07-02T11:11:19.210Z,720
2016-07-02T11:12:19.232Z,760
2016-07-02T11:13:19.264Z,755
2016-07-02T11:14:19.091Z,725
2016-07-02T11:15:19.020Z,715
2016-07-02T11:16:19.206Z,700
2016-07-02T11:17:19.260Z,680
2016-07-02T11:18:19.455Z,630
2016-07-02T11:19:19.308Z,595
2016-07-02T11:20:19.037Z,600
2016-07-02T11:21:19.070Z,610
2016-07-02T11:22:20.011Z,620
2016-07-02T11:23:19.257Z,655
2016-07-02T11:24:19.337Z,660
2016-07-02T11:25:19.061Z,620
2016-07-02T11:26:18.962Z,590
2016-07-02T11:27:19.248Z,555
2016-07-02T11:28:19.242Z,535
2016-07-02T11:29:19.246Z,530
2016-07-02T11:30:19.174Z,520
2016-07-02T11:31:19.253Z,535
2016-07-02T11:32:19.072Z,565
2016-07-02T11:33:19.985Z,590
2016-07-02T11:34:19.130Z,580
2016-07-02T11:35:19.695Z,585
2016-07-02T11:36:19.202Z,610
2016-07-02T11:37:19.289Z,590
2016-07-02T11:38:19.087Z,585
2016-07-02T11:39:19.306Z,615
2016-07-02T11:40:19.079Z,670
2016-07-02T11:41:19.285Z,680
2016-07-02T11:42:19.700Z,705
2016-07-02T11:43:19.267Z,665
2016-07-02T11:44:21.194Z,605
2016-07-02T11:45:19.562Z,570
2016-07-02T11:46:19.486Z,580
2016-07-02T11:47:19.115Z,585
2016-07-02T11:48:19.158Z,565
2016-07-02T11:49:19.310Z,525
2016-07-02T11:50:19.190Z,475
2016-07-02T11:51:19.098Z,375
2016-07-02T11:52:20.092Z,240
2016-07-02T11:53:19.185Z,215
2016-07-02T11:54:20.223Z,280
2016-07-02T11:55:19.209Z,390
2016-07-02T11:56:19.322Z,405
2016-07-02T11:57:19.719Z,330
2016-07-02T11:58:19.553Z,320
2016-07-02T11:59:19.315Z,280
2016-07-02T12:00:19.344Z,225
2016-07-02T12:01:19.768Z,295
2016-07-02T12:02:19.329Z,270
2016-07-02T12:03:19.335Z,260
2016-07-02T12:04:19.291Z,260
2016-07-02T12:05:19.416Z,235
2016-07-02T12:06:34.084Z,210
2016-07-02T12:07:20.191Z,225
2016-07-02T12:08:19.742Z,230
2016-07-02T12:09:20.203Z,210
2016-07-02T12:10:19.403Z,205
2016-07-02T12:11:19.416Z,150
2016-07-02T12:12:19.100Z,120
2016-07-02T12:13:19.156Z,150
2016-07-02T12:14:19.167Z,215
2016-07-02T12:15:19.188Z,205
2016-07-02T12:16:19.147Z,135
2016-07-02T12:17:19.288Z,105
2016-07-02T12:18:19.349Z,85
2016-07-02T12:19:19.168Z,115
2016-07-02T12:20:19.165Z,150
2016-07-02T12:21:19.358Z,225
2016-07-02T12:22:19.401Z,295
2016-07-02T12:23:19.633Z,355
2016-07-02T12:24:19.431Z,405
2016-07-02T12:25:19.343Z,435
2016-07-02T12:26:19.343Z,405
2016-07-02T12:27:19.174Z,330
2016-07-02T12:28:19.189Z,260
2016-07-02T12:29:19.174Z,195
2016-07-02T12:30:19.320Z,150
2016-07-02T12:31:19.274Z,160
2016-07-02T12:32:19.180Z,170
2016-07-02T12:33:19.191Z,170
2016-07-02T12:34:19.208Z,175
2016-07-02T12:35:19.171Z,160
2016-07-02T12:36:19.159Z,135
2016-07-02T12:37:19.173Z,120
2016-07-02T12:38:19.187Z,115
2016-07-02T12:39:19.230Z,100
2016-07-02T12:40:20.047Z,80
2016-07-02T12:41:19.371Z,75
2016-07-02T12:42:19.164Z,80
2016-07-02T12:43:19.531Z,95
2016-07-02T12:44:19.257Z,95
2016-07-02T12:45:19.452Z,90
2016-07-02T12:46:19.281Z,100
2016-07-02T12:47:19.260Z,115
2016-07-02T12:48:19.288Z,90
2016-07-02T12:49:34.050Z,75
2016-07-02T12:50:19.180Z,70
2016-07-02T12:51:19.418Z,65
2016-07-02T12:52:19.924Z,60
2016-07-02T12:53:19.450Z,65
2016-07-02T12:54:19.351Z,65
2016-07-02T12:55:19.216Z,55
2016-07-02T12:56:19.154Z,35
2016-07-02T12:57:19.257Z,25
2016-07-02T12:58:19.389Z,30
2016-07-02T12:59:19.793Z,50
2016-07-02T13:00:19.204Z,75
2016-07-02T13:01:19.130Z,70
2016-07-02T13:02:19.243Z,55
2016-07-02T13:03:19.524Z,50
2016-07-02T13:04:19.567Z,45
2016-07-02T13:05:19.796Z,40
2016-07-02T13:06:19.156Z,45
2016-07-02T13:07:19.385Z,45
2016-07-02T13:08:19.462Z,45
2016-07-02T13:09:19.175Z,55
2016-07-02T13:10:19.405Z,90
2016-07-02T13:11:19.164Z,145
2016-07-02T13:12:19.170Z,160
2016-07-02T13:13:19.265Z,160
2016-07-02T13:14:19.165Z,185
2016-07-02T13:15:19.167Z,240
2016-07-02T13:16:19.164Z,230
2016-07-02T13:17:19.173Z,175
2016-07-02T13:18:19.178Z,155
2016-07-02T13:19:19.228Z,155
2016-07-02T13:20:19.264Z,185
2016-07-02T13:21:19.914Z,205
2016-07-02T13:22:19.352Z,195
2016-07-02T13:23:19.432Z,175
2016-07-02T13:24:19.558Z,160
2016-07-02T13:25:19.301Z,145
2016-07-02T13:26:19.290Z,125
2016-07-02T13:27:20.018Z,115
2016-07-02T13:28:20.041Z,120
2016-07-02T13:29:19.271Z,95
2016-07-02T13:30:19.129Z,95
2016-07-02T13:31:19.398Z,130
2016-07-02T13:32:20.651Z,125
2016-07-02T13:33:19.343Z,105
2016-07-02T13:34:19.367Z,110
2016-07-02T13:35:19.413Z,125
2016-07-02T13:36:19.247Z,115
2016-07-02T13:37:19.416Z,100
2016-07-02T13:38:19.545Z,115
2016-07-02T13:39:19.226Z,145
2016-07-02T13:40:19.278Z,135
2016-07-02T13:41:19.369Z,135
2016-07-02T13:42:19.380Z,165
2016-07-02T13:43:19.396Z,180
2016-07-02T13:44:20.204Z,185
2016-07-02T13:45:19.376Z,205
2016-07-02T13:46:19.346Z,205
2016-07-02T13:47:19.123Z,205
2016-07-02T13:48:19.173Z,205
2016-07-02T13:49:19.630Z,220
2016-07-02T13:50:19.293Z,235
2016-07-02T13:51:19.238Z,265
2016-07-02T13:52:19.265Z,280
2016-07-02T13:53:19.077Z,325
2016-07-02T13:54:19.244Z,370
2016-07-02T13:55:19.176Z,320
2016-07-02T13:56:19.891Z,250
2016-07-02T13:57:19.090Z,185
2016-07-02T13:58:19.751Z,150
2016-07-02T13:59:19.076Z,145
2016-07-02T14:00:19.086Z,145
2016-07-02T14:01:18.996Z,145
2016-07-02T14:02:19.388Z,160